sensor_id;sensor_type;location;lat;lon;timestamp;temperature;humidity
36654;DHT22;22650;49.350;20.898;2022-12-13T00:02:14;-1.70;99.90
36654;DHT22;22650;49.350;20.898;2022-12-13T00:04:49;-1.70;99.90
36654;DHT22;22650;49.350;20.898;2022-12-13T00:07:23;-1.70;99.90
36654;DHT22;22650;49.350;20.898;2022-12-13T00:09:56;-1.70;99.90
36654;DHT22;22650;49.350;20.898;2022-12-13T00:12:30;-1.60;99.90
36654;DHT22;22650;49.350;20.898;2022-12-13T00:15:04;-1.60;99.90
36654;DHT22;22650;49.350;20.898;2022-12-13T00:17:37;-1.60;99.90
36654;DHT22;22650;49.350;20.898;2022-12-13T00:20:12;-1.60;99.90
36654;DHT22;22650;49.350;20.898;2022-12-13T00:22:45;-1.60;99.90
36654;DHT22;22650;49.350;20.898;2022-12-13T00:25:19;-1.60;99.90
36654;DHT22;22650;49.350;20.898;2022-12-13T00:27:52;-1.60;99.90
36654;DHT22;22650;49.350;20.898;2022-12-13T00:30:25;-1.60;99.90
36654;DHT22;22650;49.350;20.898;2022-12-13T00:33:03;-1.60;99.90
36654;DHT22;22650;49.350;20.898;2022-12-13T00:35:40;-1.60;99.90
36654;DHT22;22650;49.350;20.898;2022-12-13T00:38:14;-1.60;99.90
36654;DHT22;22650;49.350;20.898;2022-12-13T00:40:47;-1.60;99.90
36654;DHT22;22650;49.350;20.898;2022-12-13T00:43:21;-1.50;99.90
36654;DHT22;22650;49.350;20.898;2022-12-13T00:45:54;-1.60;99.90
36654;DHT22;22650;49.350;20.898;2022-12-13T00:48:28;-1.60;99.90
36654;DHT22;22650;49.350;20.898;2022-12-13T00:51:06;-1.50;99.90
36654;DHT22;22650;49.350;20.898;2022-12-13T00:53:40;-1.50;99.90
36654;DHT22;22650;49.350;20.898;2022-12-13T00:56:15;-1.50;99.90
36654;DHT22;22650;49.350;20.898;2022-12-13T00:58:49;-1.50;99.90
36654;DHT22;22650;49.350;20.898;2022-12-13T01:01:25;-1.50;99.90
36654;DHT22;22650;49.350;20.898;2022-12-13T01:04:01;-1.50;99.90
36654;DHT22;22650;49.350;20.898;2022-12-13T01:06:38;-1.50;99.90
36654;DHT22;22650;49.350;20.898;2022-12-13T01:09:15;-1.50;99.90
36654;DHT22;22650;49.350;20.898;2022-12-13T01:11:50;-1.50;99.90
36654;DHT22;22650;49.350;20.898;2022-12-13T01:14:23;-1.40;99.90
36654;DHT22;22650;49.350;20.898;2022-12-13T01:16:58;-1.40;99.90
36654;DHT22;22650;49.350;20.898;2022-12-13T01:19:33;-1.40;99.90
36654;DHT22;22650;49.350;20.898;2022-12-13T01:22:07;-1.40;99.90
36654;DHT22;22650;49.350;20.898;2022-12-13T01:24:43;-1.40;99.90
36654;DHT22;22650;49.350;20.898;2022-12-13T01:27:16;-1.40;99.90
36654;DHT22;22650;49.350;20.898;2022-12-13T01:29:50;-1.40;99.90
36654;DHT22;22650;49.350;20.898;2022-12-13T01:32:23;-1.40;99.90
36654;DHT22;22650;49.350;20.898;2022-12-13T01:34:56;-1.40;99.90
36654;DHT22;22650;49.350;20.898;2022-12-13T01:37:31;-1.40;99.90
36654;DHT22;22650;49.350;20.898;2022-12-13T01:40:10;-1.40;99.90
36654;DHT22;22650;49.350;20.898;2022-12-13T01:42:47;-1.40;99.90
36654;DHT22;22650;49.350;20.898;2022-12-13T01:45:23;-1.40;99.90
36654;DHT22;22650;49.350;20.898;2022-12-13T01:47:58;-1.40;99.90
36654;DHT22;22650;49.350;20.898;2022-12-13T01:50:36;-1.40;99.90
36654;DHT22;22650;49.350;20.898;2022-12-13T01:53:16;-1.40;99.90
36654;DHT22;22650;49.350;20.898;2022-12-13T01:55:53;-1.40;99.90
36654;DHT22;22650;49.350;20.898;2022-12-13T01:58:29;-1.40;99.90
36654;DHT22;22650;49.350;20.898;2022-12-13T02:01:03;-1.40;99.90
36654;DHT22;22650;49.350;20.898;2022-12-13T02:03:37;-1.40;99.90
36654;DHT22;22650;49.350;20.898;2022-12-13T02:06:13;-1.50;99.90
36654;DHT22;22650;49.350;20.898;2022-12-13T02:08:50;-1.40;99.90
36654;DHT22;22650;49.350;20.898;2022-12-13T02:11:24;-1.50;99.90
36654;DHT22;22650;49.350;20.898;2022-12-13T02:13:59;-1.50;99.90
36654;DHT22;22650;49.350;20.898;2022-12-13T02:16:41;-1.40;99.90
36654;DHT22;22650;49.350;20.898;2022-12-13T02:23:00;-1.40;99.90
36654;DHT22;22650;49.350;20.898;2022-12-13T02:25:55;-1.50;99.90
36654;DHT22;22650;49.350;20.898;2022-12-13T02:28:47;-1.50;99.90
36654;DHT22;22650;49.350;20.898;2022-12-13T02:31:32;-1.50;99.90
36654;DHT22;22650;49.350;20.898;2022-12-13T02:34:14;-1.50;99.90
36654;DHT22;22650;49.350;20.898;2022-12-13T02:36:55;-1.50;99.90
36654;DHT22;22650;49.350;20.898;2022-12-13T02:39:31;-1.60;99.90
36654;DHT22;22650;49.350;20.898;2022-12-13T02:42:10;-1.50;99.90
36654;DHT22;22650;49.350;20.898;2022-12-13T02:44:56;-1.50;99.90
36654;DHT22;22650;49.350;20.898;2022-12-13T02:47:32;-1.50;99.90
36654;DHT22;22650;49.350;20.898;2022-12-13T02:50:08;-1.50;99.90
36654;DHT22;22650;49.350;20.898;2022-12-13T02:52:43;-1.60;99.90
36654;DHT22;22650;49.350;20.898;2022-12-13T02:55:17;-1.50;99.90
36654;DHT22;22650;49.350;20.898;2022-12-13T02:57:57;-1.60;99.90
36654;DHT22;22650;49.350;20.898;2022-12-13T03:00:37;-1.60;99.90
36654;DHT22;22650;49.350;20.898;2022-12-13T03:03:22;-1.60;99.90
36654;DHT22;22650;49.350;20.898;2022-12-13T03:06:06;-1.60;99.90
36654;DHT22;22650;49.350;20.898;2022-12-13T03:09:17;-1.70;99.90
36654;DHT22;22650;49.350;20.898;2022-12-13T03:12:07;-1.70;99.90
36654;DHT22;22650;49.350;20.898;2022-12-13T03:15:07;-1.70;99.90
36654;DHT22;22650;49.350;20.898;2022-12-13T03:17:48;-1.70;99.90
36654;DHT22;22650;49.350;20.898;2022-12-13T03:20:25;-1.70;99.90
36654;DHT22;22650;49.350;20.898;2022-12-13T03:22:58;-1.70;99.90
36654;DHT22;22650;49.350;20.898;2022-12-13T03:25:32;-1.70;99.90
36654;DHT22;22650;49.350;20.898;2022-12-13T03:28:05;-1.70;99.90
36654;DHT22;22650;49.350;20.898;2022-12-13T03:30:38;-1.80;99.90
36654;DHT22;22650;49.350;20.898;2022-12-13T03:33:12;-1.80;99.90
36654;DHT22;22650;49.350;20.898;2022-12-13T03:35:47;-1.90;99.90
36654;DHT22;22650;49.350;20.898;2022-12-13T03:38:20;-1.90;99.90
36654;DHT22;22650;49.350;20.898;2022-12-13T03:40:57;-1.90;99.90
36654;DHT22;22650;49.350;20.898;2022-12-13T03:43:31;-2.00;99.90
36654;DHT22;22650;49.350;20.898;2022-12-13T03:46:05;-2.10;99.90
36654;DHT22;22650;49.350;20.898;2022-12-13T03:48:38;-2.10;99.90
36654;DHT22;22650;49.350;20.898;2022-12-13T03:51:13;-2.10;99.90
36654;DHT22;22650;49.350;20.898;2022-12-13T03:53:46;-2.20;99.90
36654;DHT22;22650;49.350;20.898;2022-12-13T03:56:20;-2.20;99.90
36654;DHT22;22650;49.350;20.898;2022-12-13T03:58:53;-2.20;99.90
36654;DHT22;22650;49.350;20.898;2022-12-13T04:01:27;-2.30;99.90
36654;DHT22;22650;49.350;20.898;2022-12-13T04:04:00;-2.40;99.90
36654;DHT22;22650;49.350;20.898;2022-12-13T04:06:35;-2.50;99.90
36654;DHT22;22650;49.350;20.898;2022-12-13T04:09:08;-2.50;99.90
36654;DHT22;22650;49.350;20.898;2022-12-13T04:11:42;-2.50;99.90
36654;DHT22;22650;49.350;20.898;2022-12-13T04:14:33;-2.50;99.90
36654;DHT22;22650;49.350;20.898;2022-12-13T04:17:06;-2.70;99.90
36654;DHT22;22650;49.350;20.898;2022-12-13T04:19:39;-2.80;99.90
36654;DHT22;22650;49.350;20.898;2022-12-13T04:22:14;-2.80;99.90
36654;DHT22;22650;49.350;20.898;2022-12-13T04:24:55;-2.90;99.90
36654;DHT22;22650;49.350;20.898;2022-12-13T04:27:28;-3.00;99.90
36654;DHT22;22650;49.350;20.898;2022-12-13T04:30:02;-3.00;99.90
36654;DHT22;22650;49.350;20.898;2022-12-13T04:32:35;-3.10;99.90
36654;DHT22;22650;49.350;20.898;2022-12-13T04:35:09;-3.20;99.90
36654;DHT22;22650;49.350;20.898;2022-12-13T04:37:43;-3.20;99.90
36654;DHT22;22650;49.350;20.898;2022-12-13T04:40:17;-3.20;99.90
36654;DHT22;22650;49.350;20.898;2022-12-13T04:42:53;-3.30;99.90
36654;DHT22;22650;49.350;20.898;2022-12-13T04:45:26;-3.30;99.90
36654;DHT22;22650;49.350;20.898;2022-12-13T04:48:00;-3.40;99.90
36654;DHT22;22650;49.350;20.898;2022-12-13T04:50:33;-3.40;99.90
36654;DHT22;22650;49.350;20.898;2022-12-13T04:53:13;-3.50;99.90
36654;DHT22;22650;49.350;20.898;2022-12-13T04:55:47;-3.60;99.90
36654;DHT22;22650;49.350;20.898;2022-12-13T04:58:20;-3.60;99.90
36654;DHT22;22650;49.350;20.898;2022-12-13T05:00:54;-3.70;99.90
36654;DHT22;22650;49.350;20.898;2022-12-13T05:03:27;-3.80;99.90
36654;DHT22;22650;49.350;20.898;2022-12-13T05:06:03;-3.90;99.90
36654;DHT22;22650;49.350;20.898;2022-12-13T05:08:59;-4.10;99.90
36654;DHT22;22650;49.350;20.898;2022-12-13T05:11:33;-4.30;99.90
36654;DHT22;22650;49.350;20.898;2022-12-13T05:14:16;-4.40;99.90
36654;DHT22;22650;49.350;20.898;2022-12-13T05:16:54;-4.50;99.90
36654;DHT22;22650;49.350;20.898;2022-12-13T05:19:28;-4.60;99.90
36654;DHT22;22650;49.350;20.898;2022-12-13T05:22:02;-4.70;99.90
36654;DHT22;22650;49.350;20.898;2022-12-13T05:24:39;-4.80;99.90
36654;DHT22;22650;49.350;20.898;2022-12-13T05:27:12;-4.90;99.90
36654;DHT22;22650;49.350;20.898;2022-12-13T05:29:57;-5.00;99.90
36654;DHT22;22650;49.350;20.898;2022-12-13T05:32:35;-5.00;99.90
36654;DHT22;22650;49.350;20.898;2022-12-13T05:35:15;-5.10;99.90
36654;DHT22;22650;49.350;20.898;2022-12-13T05:37:54;-5.20;99.90
36654;DHT22;22650;49.350;20.898;2022-12-13T05:40:30;-5.40;99.90
36654;DHT22;22650;49.350;20.898;2022-12-13T05:43:04;-5.40;99.90
36654;DHT22;22650;49.350;20.898;2022-12-13T05:45:53;-5.50;99.90
36654;DHT22;22650;49.350;20.898;2022-12-13T05:48:26;-5.60;99.90
36654;DHT22;22650;49.350;20.898;2022-12-13T05:51:00;-5.60;99.90
36654;DHT22;22650;49.350;20.898;2022-12-13T05:53:42;-5.70;99.90
36654;DHT22;22650;49.350;20.898;2022-12-13T05:56:24;-5.80;99.90
36654;DHT22;22650;49.350;20.898;2022-12-13T05:58:57;-5.80;99.90
36654;DHT22;22650;49.350;20.898;2022-12-13T06:01:31;-5.80;99.90
36654;DHT22;22650;49.350;20.898;2022-12-13T06:04:04;-5.90;99.90
36654;DHT22;22650;49.350;20.898;2022-12-13T06:06:38;-5.90;99.90
36654;DHT22;22650;49.350;20.898;2022-12-13T06:09:11;-6.00;99.90
36654;DHT22;22650;49.350;20.898;2022-12-13T06:11:46;-6.00;99.90
36654;DHT22;22650;49.350;20.898;2022-12-13T06:14:20;-6.10;99.90
36654;DHT22;22650;49.350;20.898;2022-12-13T06:16:54;-6.20;99.90
36654;DHT22;22650;49.350;20.898;2022-12-13T06:19:28;-6.30;99.90
36654;DHT22;22650;49.350;20.898;2022-12-13T06:22:01;-6.30;99.90
36654;DHT22;22650;49.350;20.898;2022-12-13T06:24:34;-6.30;99.90
36654;DHT22;22650;49.350;20.898;2022-12-13T06:27:09;-6.40;99.90
36654;DHT22;22650;49.350;20.898;2022-12-13T06:29:46;-6.40;99.90
36654;DHT22;22650;49.350;20.898;2022-12-13T06:32:19;-6.50;99.90
36654;DHT22;22650;49.350;20.898;2022-12-13T06:34:52;-6.50;99.90
36654;DHT22;22650;49.350;20.898;2022-12-13T06:37:27;-6.60;99.90
36654;DHT22;22650;49.350;20.898;2022-12-13T06:40:01;-6.60;99.90
36654;DHT22;22650;49.350;20.898;2022-12-13T06:42:35;-6.70;99.90
36654;DHT22;22650;49.350;20.898;2022-12-13T06:45:09;-6.70;99.90
36654;DHT22;22650;49.350;20.898;2022-12-13T06:47:42;-6.80;99.90
36654;DHT22;22650;49.350;20.898;2022-12-13T06:50:15;-6.90;99.90
36654;DHT22;22650;49.350;20.898;2022-12-13T06:52:49;-7.00;99.90
36654;DHT22;22650;49.350;20.898;2022-12-13T06:55:22;-7.10;99.90
36654;DHT22;22650;49.350;20.898;2022-12-13T06:57:57;-7.00;99.90
36654;DHT22;22650;49.350;20.898;2022-12-13T07:00:31;-7.00;99.90
36654;DHT22;22650;49.350;20.898;2022-12-13T07:03:11;-7.10;99.90
36654;DHT22;22650;49.350;20.898;2022-12-13T07:05:45;-7.10;99.90
36654;DHT22;22650;49.350;20.898;2022-12-13T07:08:19;-7.00;99.90
36654;DHT22;22650;49.350;20.898;2022-12-13T07:10:53;-7.00;99.90
36654;DHT22;22650;49.350;20.898;2022-12-13T07:13:29;-7.00;99.90
36654;DHT22;22650;49.350;20.898;2022-12-13T07:16:02;-7.00;99.90
36654;DHT22;22650;49.350;20.898;2022-12-13T07:18:36;-7.00;99.90
36654;DHT22;22650;49.350;20.898;2022-12-13T07:21:11;-7.10;99.90
36654;DHT22;22650;49.350;20.898;2022-12-13T07:23:53;-7.10;99.90
36654;DHT22;22650;49.350;20.898;2022-12-13T07:26:26;-7.10;99.90
36654;DHT22;22650;49.350;20.898;2022-12-13T07:29:02;-7.10;99.90
36654;DHT22;22650;49.350;20.898;2022-12-13T07:31:35;-7.10;99.90
36654;DHT22;22650;49.350;20.898;2022-12-13T07:34:09;-7.10;99.90
36654;DHT22;22650;49.350;20.898;2022-12-13T07:36:48;-7.20;99.90
36654;DHT22;22650;49.350;20.898;2022-12-13T07:39:22;-7.20;99.90
36654;DHT22;22650;49.350;20.898;2022-12-13T07:41:58;-7.20;99.90
36654;DHT22;22650;49.350;20.898;2022-12-13T07:44:32;-7.10;99.90
36654;DHT22;22650;49.350;20.898;2022-12-13T07:47:06;-7.10;99.90
36654;DHT22;22650;49.350;20.898;2022-12-13T07:49:39;-7.10;99.90
36654;DHT22;22650;49.350;20.898;2022-12-13T07:52:12;-7.20;99.90
36654;DHT22;22650;49.350;20.898;2022-12-13T07:54:45;-7.20;99.90
36654;DHT22;22650;49.350;20.898;2022-12-13T07:57:19;-7.20;99.90
36654;DHT22;22650;49.350;20.898;2022-12-13T07:59:54;-7.20;99.90
36654;DHT22;22650;49.350;20.898;2022-12-13T08:02:27;-7.30;99.90
36654;DHT22;22650;49.350;20.898;2022-12-13T08:05:00;-7.30;99.90
36654;DHT22;22650;49.350;20.898;2022-12-13T08:07:54;-7.40;99.90
36654;DHT22;22650;49.350;20.898;2022-12-13T08:10:27;-7.30;99.90
36654;DHT22;22650;49.350;20.898;2022-12-13T08:13:01;-7.40;99.90
36654;DHT22;22650;49.350;20.898;2022-12-13T08:15:36;-7.30;99.90
36654;DHT22;22650;49.350;20.898;2022-12-13T08:18:09;-7.30;99.90
36654;DHT22;22650;49.350;20.898;2022-12-13T08:20:43;-7.30;99.90
36654;DHT22;22650;49.350;20.898;2022-12-13T08:23:16;-7.30;99.90
36654;DHT22;22650;49.350;20.898;2022-12-13T08:25:51;-7.30;99.90
36654;DHT22;22650;49.350;20.898;2022-12-13T08:28:25;-7.20;99.90
36654;DHT22;22650;49.350;20.898;2022-12-13T08:31:03;-7.20;99.90
36654;DHT22;22650;49.350;20.898;2022-12-13T08:33:37;-7.10;99.90
36654;DHT22;22650;49.350;20.898;2022-12-13T08:36:12;-7.10;99.90
36654;DHT22;22650;49.350;20.898;2022-12-13T08:38:47;-6.90;99.90
36654;DHT22;22650;49.350;20.898;2022-12-13T08:41:20;-6.70;99.90
36654;DHT22;22650;49.350;20.898;2022-12-13T08:43:54;-6.60;99.90
36654;DHT22;22650;49.350;20.898;2022-12-13T08:46:28;-6.30;99.90
36654;DHT22;22650;49.350;20.898;2022-12-13T08:49:02;-6.10;99.90
36654;DHT22;22650;49.350;20.898;2022-12-13T08:51:35;-5.90;99.90
36654;DHT22;22650;49.350;20.898;2022-12-13T08:54:09;-5.70;99.90
36654;DHT22;22650;49.350;20.898;2022-12-13T08:56:42;-5.50;99.90
36654;DHT22;22650;49.350;20.898;2022-12-13T08:59:16;-5.40;99.90
36654;DHT22;22650;49.350;20.898;2022-12-13T09:01:51;-5.20;99.90
36654;DHT22;22650;49.350;20.898;2022-12-13T09:04:26;-5.00;99.90
36654;DHT22;22650;49.350;20.898;2022-12-13T09:07:03;-4.80;99.90
36654;DHT22;22650;49.350;20.898;2022-12-13T09:09:37;-4.70;99.90
36654;DHT22;22650;49.350;20.898;2022-12-13T09:12:10;-4.60;99.90
36654;DHT22;22650;49.350;20.898;2022-12-13T09:15:01;-4.50;99.90
36654;DHT22;22650;49.350;20.898;2022-12-13T09:17:36;-4.40;99.90
36654;DHT22;22650;49.350;20.898;2022-12-13T09:20:10;-4.30;99.90
36654;DHT22;22650;49.350;20.898;2022-12-13T09:23:01;-4.10;99.90
36654;DHT22;22650;49.350;20.898;2022-12-13T09:25:35;-3.90;99.90
36654;DHT22;22650;49.350;20.898;2022-12-13T09:28:09;-3.70;99.90
36654;DHT22;22650;49.350;20.898;2022-12-13T09:30:42;-3.40;99.90
36654;DHT22;22650;49.350;20.898;2022-12-13T09:33:17;-3.10;99.90
36654;DHT22;22650;49.350;20.898;2022-12-13T09:36:03;-2.90;99.90
36654;DHT22;22650;49.350;20.898;2022-12-13T09:38:54;-2.70;99.90
36654;DHT22;22650;49.350;20.898;2022-12-13T09:41:32;-2.40;99.90
36654;DHT22;22650;49.350;20.898;2022-12-13T09:44:18;-2.20;99.90
36654;DHT22;22650;49.350;20.898;2022-12-13T09:47:17;-1.90;99.90
36654;DHT22;22650;49.350;20.898;2022-12-13T09:49:59;-1.70;99.90
36654;DHT22;22650;49.350;20.898;2022-12-13T09:52:37;-1.50;99.90
36654;DHT22;22650;49.350;20.898;2022-12-13T09:55:18;-1.50;99.90
36654;DHT22;22650;49.350;20.898;2022-12-13T09:57:52;-1.50;99.90
36654;DHT22;22650;49.350;20.898;2022-12-13T10:00:32;-1.60;99.90
36654;DHT22;22650;49.350;20.898;2022-12-13T10:03:12;-1.60;99.90
36654;DHT22;22650;49.350;20.898;2022-12-13T10:05:56;-1.70;99.90
36654;DHT22;22650;49.350;20.898;2022-12-13T10:08:34;-1.70;99.90
36654;DHT22;22650;49.350;20.898;2022-12-13T10:11:11;-1.80;99.90
36654;DHT22;22650;49.350;20.898;2022-12-13T10:13:49;-1.80;99.90
36654;DHT22;22650;49.350;20.898;2022-12-13T10:16:40;-1.80;99.90
36654;DHT22;22650;49.350;20.898;2022-12-13T10:19:17;-1.80;99.90
36654;DHT22;22650;49.350;20.898;2022-12-13T10:22:04;-1.70;99.90
36654;DHT22;22650;49.350;20.898;2022-12-13T10:24:50;-1.70;99.90
36654;DHT22;22650;49.350;20.898;2022-12-13T10:27:27;-1.70;99.90
36654;DHT22;22650;49.350;20.898;2022-12-13T10:30:07;-1.70;99.90
36654;DHT22;22650;49.350;20.898;2022-12-13T10:32:46;-1.70;99.90
36654;DHT22;22650;49.350;20.898;2022-12-13T10:35:23;-1.70;99.90
36654;DHT22;22650;49.350;20.898;2022-12-13T10:38:00;-1.70;99.90
36654;DHT22;22650;49.350;20.898;2022-12-13T10:40:35;-1.60;99.90
36654;DHT22;22650;49.350;20.898;2022-12-13T10:43:13;-1.50;99.90
36654;DHT22;22650;49.350;20.898;2022-12-13T10:45:57;-1.40;99.90
36654;DHT22;22650;49.350;20.898;2022-12-13T10:48:34;-1.30;99.90
36654;DHT22;22650;49.350;20.898;2022-12-13T10:51:11;-1.20;99.90
36654;DHT22;22650;49.350;20.898;2022-12-13T10:53:48;-1.00;99.90
36654;DHT22;22650;49.350;20.898;2022-12-13T10:56:32;-0.90;99.90
36654;DHT22;22650;49.350;20.898;2022-12-13T10:59:09;-0.80;99.90
36654;DHT22;22650;49.350;20.898;2022-12-13T11:01:48;-0.60;99.90
36654;DHT22;22650;49.350;20.898;2022-12-13T11:04:25;-0.50;99.90
36654;DHT22;22650;49.350;20.898;2022-12-13T11:07:13;-0.40;99.90
36654;DHT22;22650;49.350;20.898;2022-12-13T11:09:54;-0.40;99.90
36654;DHT22;22650;49.350;20.898;2022-12-13T11:12:36;-0.30;99.90
36654;DHT22;22650;49.350;20.898;2022-12-13T11:15:16;-0.30;99.90
36654;DHT22;22650;49.350;20.898;2022-12-13T11:17:56;-0.30;99.90
36654;DHT22;22650;49.350;20.898;2022-12-13T11:20:32;-0.30;99.90
36654;DHT22;22650;49.350;20.898;2022-12-13T11:23:11;-0.30;99.90
36654;DHT22;22650;49.350;20.898;2022-12-13T11:25:47;-0.40;99.90
36654;DHT22;22650;49.350;20.898;2022-12-13T11:28:39;-0.40;99.90
36654;DHT22;22650;49.350;20.898;2022-12-13T11:31:21;-0.50;99.90
36654;DHT22;22650;49.350;20.898;2022-12-13T11:34:01;-0.50;99.90
36654;DHT22;22650;49.350;20.898;2022-12-13T11:36:41;-0.50;99.90
36654;DHT22;22650;49.350;20.898;2022-12-13T11:39:23;-0.40;99.90
36654;DHT22;22650;49.350;20.898;2022-12-13T11:42:04;-0.40;99.90
36654;DHT22;22650;49.350;20.898;2022-12-13T11:44:42;-0.30;99.90
36654;DHT22;22650;49.350;20.898;2022-12-13T11:47:22;-0.20;99.90
36654;DHT22;22650;49.350;20.898;2022-12-13T11:49:58;-0.20;99.90
36654;DHT22;22650;49.350;20.898;2022-12-13T11:52:37;-0.10;99.90
36654;DHT22;22650;49.350;20.898;2022-12-13T11:55:16;0.00;99.90
36654;DHT22;22650;49.350;20.898;2022-12-13T11:57:58;0.00;99.90
36654;DHT22;22650;49.350;20.898;2022-12-13T12:00:35;0.10;99.90
36654;DHT22;22650;49.350;20.898;2022-12-13T12:03:15;0.20;99.90
36654;DHT22;22650;49.350;20.898;2022-12-13T12:05:52;0.20;99.90
36654;DHT22;22650;49.350;20.898;2022-12-13T12:08:32;0.30;99.90
36654;DHT22;22650;49.350;20.898;2022-12-13T12:11:11;0.60;99.90
36654;DHT22;22650;49.350;20.898;2022-12-13T12:13:50;0.90;99.90
36654;DHT22;22650;49.350;20.898;2022-12-13T12:16:30;1.30;99.90
36654;DHT22;22650;49.350;20.898;2022-12-13T12:19:11;1.50;99.90
36654;DHT22;22650;49.350;20.898;2022-12-13T12:21:57;1.60;99.90
36654;DHT22;22650;49.350;20.898;2022-12-13T12:24:56;2.00;99.90
36654;DHT22;22650;49.350;20.898;2022-12-13T12:27:38;2.00;99.90
36654;DHT22;22650;49.350;20.898;2022-12-13T12:30:18;2.10;99.90
36654;DHT22;22650;49.350;20.898;2022-12-13T12:33:01;2.30;99.90
36654;DHT22;22650;49.350;20.898;2022-12-13T12:35:50;2.60;99.90
36654;DHT22;22650;49.350;20.898;2022-12-13T12:38:44;2.90;99.90
36654;DHT22;22650;49.350;20.898;2022-12-13T12:41:27;3.10;99.90
36654;DHT22;22650;49.350;20.898;2022-12-13T12:44:08;3.20;99.90
36654;DHT22;22650;49.350;20.898;2022-12-13T12:46:53;3.00;99.90
36654;DHT22;22650;49.350;20.898;2022-12-13T12:52:59;2.80;99.90
36654;DHT22;22650;49.350;20.898;2022-12-13T12:55:43;2.50;99.90
36654;DHT22;22650;49.350;20.898;2022-12-13T12:58:26;2.40;99.90
36654;DHT22;22650;49.350;20.898;2022-12-13T13:01:12;2.20;99.90
36654;DHT22;22650;49.350;20.898;2022-12-13T13:03:51;2.10;99.90
36654;DHT22;22650;49.350;20.898;2022-12-13T13:06:35;2.10;99.90
36654;DHT22;22650;49.350;20.898;2022-12-13T13:09:12;2.30;99.90
36654;DHT22;22650;49.350;20.898;2022-12-13T13:11:56;2.50;99.90
36654;DHT22;22650;49.350;20.898;2022-12-13T13:14:30;2.80;99.90
36654;DHT22;22650;49.350;20.898;2022-12-13T13:20:22;3.20;99.90
36654;DHT22;22650;49.350;20.898;2022-12-13T13:22:57;3.20;99.90
36654;DHT22;22650;49.350;20.898;2022-12-13T13:25:54;3.10;99.90
36654;DHT22;22650;49.350;20.898;2022-12-13T13:28:47;2.90;99.90
36654;DHT22;22650;49.350;20.898;2022-12-13T13:31:21;2.80;99.90
36654;DHT22;22650;49.350;20.898;2022-12-13T13:33:54;2.80;99.90
36654;DHT22;22650;49.350;20.898;2022-12-13T13:36:48;2.60;99.90
36654;DHT22;22650;49.350;20.898;2022-12-13T13:39:51;2.50;99.90
36654;DHT22;22650;49.350;20.898;2022-12-13T13:42:27;2.30;99.90
36654;DHT22;22650;49.350;20.898;2022-12-13T13:45:18;2.20;99.90
36654;DHT22;22650;49.350;20.898;2022-12-13T13:58:08;1.00;99.90
36654;DHT22;22650;49.350;20.898;2022-12-13T14:01:19;0.70;99.90
36654;DHT22;22650;49.350;20.898;2022-12-13T14:04:16;0.40;99.90
36654;DHT22;22650;49.350;20.898;2022-12-13T14:10:17;-0.10;99.90
36654;DHT22;22650;49.350;20.898;2022-12-13T14:13:24;-0.40;99.90
36654;DHT22;22650;49.350;20.898;2022-12-13T14:22:44;-1.20;99.90
36654;DHT22;22650;49.350;20.898;2022-12-13T14:25:44;-1.40;99.90
36654;DHT22;22650;49.350;20.898;2022-12-13T14:28:33;-1.50;99.90
36654;DHT22;22650;49.350;20.898;2022-12-13T14:31:14;-1.80;99.90
36654;DHT22;22650;49.350;20.898;2022-12-13T14:33:55;-2.10;99.90
36654;DHT22;22650;49.350;20.898;2022-12-13T14:36:31;-2.20;99.90
36654;DHT22;22650;49.350;20.898;2022-12-13T14:39:14;-2.40;99.90
36654;DHT22;22650;49.350;20.898;2022-12-13T14:41:58;-2.50;99.90
36654;DHT22;22650;49.350;20.898;2022-12-13T14:44:33;-2.70;99.90
36654;DHT22;22650;49.350;20.898;2022-12-13T14:47:07;-2.80;99.90
36654;DHT22;22650;49.350;20.898;2022-12-13T14:49:51;-2.90;99.90
36654;DHT22;22650;49.350;20.898;2022-12-13T14:52:28;-3.10;99.90
36654;DHT22;22650;49.350;20.898;2022-12-13T14:55:05;-3.30;99.90
36654;DHT22;22650;49.350;20.898;2022-12-13T14:57:51;-3.50;99.90
36654;DHT22;22650;49.350;20.898;2022-12-13T15:00:30;-3.60;99.90
36654;DHT22;22650;49.350;20.898;2022-12-13T15:03:04;-3.70;99.90
36654;DHT22;22650;49.350;20.898;2022-12-13T15:05:41;-3.80;99.90
36654;DHT22;22650;49.350;20.898;2022-12-13T15:08:21;-3.80;99.90
36654;DHT22;22650;49.350;20.898;2022-12-13T15:10:57;-4.00;99.90
36654;DHT22;22650;49.350;20.898;2022-12-13T15:13:37;-4.10;99.90
36654;DHT22;22650;49.350;20.898;2022-12-13T15:16:20;-4.20;99.90
36654;DHT22;22650;49.350;20.898;2022-12-13T15:19:04;-4.20;99.90
36654;DHT22;22650;49.350;20.898;2022-12-13T15:21:52;-4.20;99.90
36654;DHT22;22650;49.350;20.898;2022-12-13T15:24:37;-4.20;99.90
36654;DHT22;22650;49.350;20.898;2022-12-13T15:27:21;-4.30;99.90
36654;DHT22;22650;49.350;20.898;2022-12-13T15:29:55;-4.30;99.90
36654;DHT22;22650;49.350;20.898;2022-12-13T15:32:30;-4.40;99.90
36654;DHT22;22650;49.350;20.898;2022-12-13T15:35:14;-4.50;99.90
36654;DHT22;22650;49.350;20.898;2022-12-13T15:37:48;-4.60;99.90
36654;DHT22;22650;49.350;20.898;2022-12-13T15:40:22;-4.70;99.90
36654;DHT22;22650;49.350;20.898;2022-12-13T15:42:55;-4.80;99.90
36654;DHT22;22650;49.350;20.898;2022-12-13T15:46:02;-4.80;99.90
36654;DHT22;22650;49.350;20.898;2022-12-13T15:48:40;-4.90;99.90
36654;DHT22;22650;49.350;20.898;2022-12-13T15:51:19;-5.00;99.90
36654;DHT22;22650;49.350;20.898;2022-12-13T15:54:04;-5.10;99.90
36654;DHT22;22650;49.350;20.898;2022-12-13T15:56:58;-5.20;99.90
36654;DHT22;22650;49.350;20.898;2022-12-13T15:59:38;-5.20;99.90
36654;DHT22;22650;49.350;20.898;2022-12-13T16:02:15;-5.20;99.90
36654;DHT22;22650;49.350;20.898;2022-12-13T16:05:04;-5.30;99.90
36654;DHT22;22650;49.350;20.898;2022-12-13T16:07:48;-5.20;99.90
36654;DHT22;22650;49.350;20.898;2022-12-13T16:10:28;-5.30;99.90
36654;DHT22;22650;49.350;20.898;2022-12-13T16:13:04;-5.30;99.90
36654;DHT22;22650;49.350;20.898;2022-12-13T16:15:47;-5.30;99.90
36654;DHT22;22650;49.350;20.898;2022-12-13T16:18:22;-5.40;99.90
36654;DHT22;22650;49.350;20.898;2022-12-13T16:20:59;-5.50;99.90
36654;DHT22;22650;49.350;20.898;2022-12-13T16:23:32;-5.50;99.90
36654;DHT22;22650;49.350;20.898;2022-12-13T16:26:08;-5.50;99.90
36654;DHT22;22650;49.350;20.898;2022-12-13T16:28:42;-5.50;99.90
36654;DHT22;22650;49.350;20.898;2022-12-13T16:31:17;-5.50;99.90
36654;DHT22;22650;49.350;20.898;2022-12-13T16:33:53;-5.50;99.90
36654;DHT22;22650;49.350;20.898;2022-12-13T16:36:27;-5.50;99.90
36654;DHT22;22650;49.350;20.898;2022-12-13T16:39:01;-5.50;99.90
36654;DHT22;22650;49.350;20.898;2022-12-13T16:41:35;-5.50;99.90
36654;DHT22;22650;49.350;20.898;2022-12-13T16:44:18;-5.40;99.90
36654;DHT22;22650;49.350;20.898;2022-12-13T16:46:53;-5.40;99.90
36654;DHT22;22650;49.350;20.898;2022-12-13T16:49:48;-5.40;99.90
36654;DHT22;22650;49.350;20.898;2022-12-13T16:52:23;-5.40;99.90
36654;DHT22;22650;49.350;20.898;2022-12-13T16:54:56;-5.30;99.90
36654;DHT22;22650;49.350;20.898;2022-12-13T16:57:31;-5.30;99.90